Stations météo

réclame
Mon MeteoGroup
Uccle, Belgique (6447): Température de l'air & dewpoint: 15.07.2019 19:00:00 - 21.07.2019 19:00:00 (CEST)Uccle, Belgique (6447): Vitesse du vent & gusts: 15.07.2019 19:00:00 - 21.07.2019 19:00:00 (CEST)Uccle, Belgique (6447): Direction du vent: 15.07.2019 19:00:00 - 21.07.2019 19:00:00 (CEST)Uccle, Belgique (6447): reduced air pressure: 15.07.2019 19:00:00 - 21.07.2019 19:00:00 (CEST)Uccle, Belgique (6447): Ensoleillement: 15.07.2019 19:00:00 - 21.07.2019 19:00:00 (CEST)Uccle, Belgique (6447): Quantités de précipitations: 15.07.2019 19:00:00 - 21.07.2019 19:00:00 (CEST)
Date & Time tt [°C] td [°C] ff [km/h] ff [knt] fx [km/h] fx [knt] dd ppp [hPa] sd [min] rr [mm]
21.07.2019 19:00:00 23,7 11,0 8 5 23 13 SW 1021,8 41 0,0
21.07.2019 18:00:00 23,5 10,7 8 4 25 14 W 1021,8 48 0,0
21.07.2019 17:00:00 23,7 10,6 11 6 27 15 NW 1021,8 41 0,0
21.07.2019 16:00:00 23,5 10,5 8 5 26 14 SW 1021,9 43 0,0
21.07.2019 15:00:00 22,9 11,5 11 6 26 14 WSW 1021,7 37 0,0
21.07.2019 14:00:00 22,7 11,9 11 6 25 14 WSW 1021,6 43 0,0
21.07.2019 13:00:00 21,5 13,0 12 7 23 13 W 1021,6 24 0,0
21.07.2019 12:00:00 20,9 14,6 12 6 22 12 SW 1021,2 33 0,0
21.07.2019 11:00:00 19,7 19,7 9 5 21 12 WSW 1021,0 44 0,0
21.07.2019 10:00:00 18,3 18,3 9 5 20 11 SW 1020,3 48 0,0
21.07.2019 09:00:00 16,8 16,8 10 5 20 11 SW 1019,7 53 0,0
21.07.2019 08:00:00 15,5 15,5 7 4 17 9 SW 1019,3 48 0,0
21.07.2019 07:00:00 14,7 14,7 8 4 16 9 SW 1018,7 9 0,0
21.07.2019 06:00:00 14,9 14,9 8 4 23 13 WSW 1018,0 0 0,0
21.07.2019 05:00:00 15,3 15,3 8 5 20 11 SW 1017,3 0 0,0
21.07.2019 04:00:00 15,6 15,6 9 5 21 11 SW 1016,7 0 0,0
21.07.2019 03:00:00 16,3 16,3 7 4 26 14 WSW 1016,5 0 0,0
21.07.2019 02:00:00 16,9 16,5 11 6 24 13 SW 1015,9 0 0,0
21.07.2019 01:00:00 17,6 13,7 12 7 21 12 SW 1015,7 0 0,0
21.07.2019 00:00:00 18,3 13,4 10 6 25 14 SW 1015,2 0 0,0
20.07.2019 23:00:00 19,2 13,2 10 5 23 13 W 1014,6 0 0,0
20.07.2019 22:00:00 20,5 12,8 14 8 32 17 W 1013,8 0 0,0
20.07.2019 21:00:00 21,7 12,5 15 8 42 23 WSW 1012,7 17 0,0
20.07.2019 20:00:00 23,1 12,3 18 10 48 26 WSW 1011,9 45 0,0
20.07.2019 19:00:00 24,0 18,1 14 8 34 18 WSW 1011,2 29 0,0
20.07.2019 18:00:00 22,5 22,2 17 9 33 18 SW 1010,9 7 0,0
20.07.2019 17:00:00 22,0 22,0 10 5 26 14 SW 1010,6 23 0,0
20.07.2019 16:00:00 20,8 20,8 11 6 22 12 S 1010,5 9 4,2
20.07.2019 15:00:00 21,0 15,0 20 11 43 23 W 1010,2 3 5,4
20.07.2019 14:00:00 26,3 14,7 14 8 32 17 SW 1009,4 26 0,0
20.07.2019 13:00:00 25,1 14,0 18 10 33 18 SSW 1009,2 34 0,0
20.07.2019 12:00:00 22,9 14,5 12 7 23 13 S 1009,4 14 0,0
20.07.2019 11:00:00 20,8 15,1 4 2 9 5 ESE 1009,6 1 0,0
20.07.2019 10:00:00 19,9 14,1 4 2 34 19 N 1010,0 0 0,0
20.07.2019 09:00:00 20,4 13,9 19 10 39 21 WNW 1010,0 17 0,0
20.07.2019 08:00:00 20,0 13,5 25 14 38 21 SSE 1009,1 7 0,0
20.07.2019 07:00:00 18,8 13,5 24 13 37 20 SSE 1009,3 0 0,0
20.07.2019 06:00:00 18,4 13,5 22 12 35 19 SSE 1009,4 0 0,0
20.07.2019 05:00:00 18,5 13,4 23 12 31 17 SSE 1009,8 0 0,0
20.07.2019 04:00:00 18,9 13,5 21 11 29 16 SSE 1010,3 0 0,0
20.07.2019 03:00:00 19,4 13,6 18 10 29 16 SSE 1010,6 0 0,0
20.07.2019 02:00:00 19,9 13,7 22 12 29 16 SSE 1010,8 0 0,0
20.07.2019 01:00:00 19,9 13,8 17 9 24 13 SSE 1011,5 0 0,0
20.07.2019 00:00:00 20,1 13,8 15 8 20 11 SSE 1012,0 0 0,0
19.07.2019 23:00:00 20,7 13,8 13 7 17 9 SSE 1012,1 0 0,0
19.07.2019 22:00:00 21,2 13,1 11 6 16 9 SSE 1012,2 0 0,0
19.07.2019 21:00:00 22,8 12,8 9 5 19 11 S 1012,3 0 0,0
19.07.2019 20:00:00 23,4 12,4 11 6 23 13 S 1012,6 0 0,0
19.07.2019 19:00:00 23,6 11,8 12 6 22 12 S 1012,8 0 0,0
19.07.2019 18:00:00 23,8 11,6 9 5 24 13 S 1013,1 20 0,0
19.07.2019 17:00:00 23,7 11,2 12 7 29 16 SSW 1013,4 28 0,0
19.07.2019 16:00:00 23,3 11,4 11 6 27 14 SSW 1013,7 17 0,0
19.07.2019 15:00:00 23,3 11,5 13 7 32 17 SSW 1014,0 26 0,0
19.07.2019 14:00:00 22,6 12,1 14 8 26 14 SSW 1014,0 22 0,0
19.07.2019 13:00:00 21,6 12,4 10 6 29 15 SSW 1014,1 36 0,0
19.07.2019 12:00:00 20,9 13,3 13 7 24 13 SW 1014,2 60 0,0
19.07.2019 11:00:00 19,5 17,8 11 6 25 14 SW 1014,4 60 0,0
19.07.2019 10:00:00 18,1 17,6 13 7 25 13 SW 1014,5 53 0,0
19.07.2019 09:00:00 16,7 16,7 10 5 21 12 SW 1014,0 1 0,0
19.07.2019 08:00:00 16,1 16,1 11 6 19 11 SW 1013,7 0 0,0
19.07.2019 07:00:00 15,8 15,8 13 7 20 11 SW 1013,4 0 0,0
19.07.2019 06:00:00 15,8 15,8 9 5 22 12 SSW 1013,3 0 0,0
19.07.2019 05:00:00 16,0 16,0 9 5 21 12 SW 1013,3 0 0,0
19.07.2019 04:00:00 16,5 16,5 8 5 25 13 WSW 1013,2 0 0,0
19.07.2019 03:00:00 17,4 17,4 9 5 18 10 WSW 1013,1 0 0,0
19.07.2019 02:00:00 18,0 18,0 7 4 21 12 WSW 1013,0 0 0,0
19.07.2019 01:00:00 18,2 16,6 11 6 22 12 SW 1012,9 0 0,0
19.07.2019 00:00:00 18,4 14,5 9 5 17 9 SW 1012,7 0 0,0
18.07.2019 23:00:00 18,7 14,3 9 5 19 11 SSW 1012,6 0 0,0
18.07.2019 22:00:00 19,2 14,8 11 6 22 12 SW 1012,4 0 0,0
18.07.2019 21:00:00 19,6 14,8 11 6 23 12 SW 1012,1 0 0,0
18.07.2019 20:00:00 20,0 14,3 11 6 26 14 SW 1012,0 0 0,0
18.07.2019 19:00:00 20,0 14,3 16 9 32 17 WSW 1011,9 0 0,0
18.07.2019 18:00:00 22,3 11,8 16 8 29 16 WSW 1011,3 0 0,0
18.07.2019 17:00:00 22,6 13,0 14 8 29 16 WSW 1011,2 0 0,0
18.07.2019 16:00:00 22,1 12,7 13 7 32 17 WSW 1011,5 2 0,0
18.07.2019 15:00:00 22,3 11,6 14 8 31 17 WSW 1011,5 10 0,0
18.07.2019 14:00:00 21,5 12,6 11 6 29 16 WSW 1011,5 16 0,0
18.07.2019 13:00:00 20,9 12,4 15 8 30 16 SW 1011,6 37 0,0
18.07.2019 12:00:00 20,2 12,4 14 7 32 17 WSW 1011,9 27 0,0
18.07.2019 11:00:00 19,5 12,8 13 7 23 13 SW 1011,5 27 0,0
18.07.2019 10:00:00 18,7 12,9 11 6 23 12 SW 1011,6 59 0,0
18.07.2019 09:00:00 16,8 12,1 11 6 21 11 WSW 1011,8 30 0,0
18.07.2019 08:00:00 16,2 12,0 7 4 16 9 SW 1011,5 28 0,0
18.07.2019 07:00:00 15,5 12,1 9 5 21 11 WSW 1011,5 1 0,0
18.07.2019 06:00:00 16,1 13,4 9 5 19 10 WSW 1011,5 0 0,0
18.07.2019 05:00:00 16,7 12,2 8 5 16 9 SSW 1011,2 0 0,0
18.07.2019 04:00:00 16,6 11,7 6 3 17 9 SSE 1011,3 0 0,0
18.07.2019 03:00:00 17,8 11,6 14 8 19 11 SE 1011,7 0 0,0
18.07.2019 02:00:00 17,7 11,9 11 6 19 11 SE 1012,1 0 0,0
18.07.2019 01:00:00 18,7 12,0 10 6 19 10 SE 1012,1 0 0,0
18.07.2019 00:00:00 18,4 12,3 9 5 15 8 ESE 1012,2 0 0,0
17.07.2019 23:00:00 18,8 12,1 5 3 9 5 E 1012,5 0 0,0
17.07.2019 22:00:00 20,0 12,1 4 2 8 4 E 1012,6 0 0,0
17.07.2019 21:00:00 21,8 12,6 4 2 10 5 ESE 1012,5 0 0,0
17.07.2019 20:00:00 23,2 11,8 4 2 13 7 ESE 1012,6 0 0,0
17.07.2019 19:00:00 23,9 10,7 8 5 25 13 SE 1012,8 34 0,0
17.07.2019 18:00:00 24,0 10,4 5 3 17 9 N 1013,2 53 0,0
17.07.2019 17:00:00 24,2 10,6 5 3 14 8 E 1013,6 50 0,0
17.07.2019 16:00:00 24,3 10,5 10 5 18 10 ENE 1014,1 60 0,0
17.07.2019 15:00:00 23,7 10,6 8 4 19 10 SSE 1014,4 60 0,0
17.07.2019 14:00:00 22,7 10,7 7 4 17 9 N 1014,7 58 0,0
17.07.2019 13:00:00 21,7 11,8 9 5 20 11 ESE 1015,3 57 0,0
17.07.2019 12:00:00 20,3 11,5 7 4 11 6 S 1015,7 60 0,0
17.07.2019 11:00:00 19,5 12,1 4 2 12 6 NNW 1015,8 45 0,0
17.07.2019 10:00:00 18,0 16,4 4 2 9 5 E 1016,0 45 0,0
17.07.2019 09:00:00 16,0 16,0 4 2 7 4 E 1016,1 46 0,0
17.07.2019 08:00:00 13,1 13,1 4 2 7 4 ENE 1016,0 51 0,0
17.07.2019 07:00:00 11,3 11,3 6 3 8 4 NE 1016,2 15 0,0
17.07.2019 06:00:00 11,0 11,0 5 3 8 4 NE 1016,4 0 0,0
17.07.2019 05:00:00 11,3 11,3 6 3 9 5 NNE 1016,4 0 0,0
17.07.2019 04:00:00 11,8 11,8 6 3 9 5 NE 1016,7 0 0,0
17.07.2019 03:00:00 12,3 12,3 7 4 8 5 NNE 1017,2 0 0,0
17.07.2019 02:00:00 12,7 12,7 4 2 8 4 N 1017,3 0 0,0
17.07.2019 01:00:00 13,2 13,2 6 3 8 4 N 1017,3 0 0,0
17.07.2019 00:00:00 13,9 12,4 5 3 7 4 NE 1017,3 0 0,0
16.07.2019 23:00:00 15,0 10,6 4 2 6 3 NE 1017,5 0 0,0
16.07.2019 22:00:00 16,9 9,7 4 2 10 5 NW 1017,4 0 0,0
16.07.2019 21:00:00 19,1 10,0 7 4 14 8 NW 1017,2 22 0,0
16.07.2019 20:00:00 20,2 10,3 7 4 17 9 NNW 1017,3 39 0,0
16.07.2019 19:00:00 20,1 10,1 9 5 18 10 WNW 1017,5 38 0,0
16.07.2019 18:00:00 20,2 9,8 7 4 17 9 WNW 1017,7 41 0,0
16.07.2019 17:00:00 20,2 9,9 7 4 21 11 NW 1018,2 42 0,0
16.07.2019 16:00:00 19,8 9,8 4 2 16 8 NNE 1018,5 33 0,0
16.07.2019 15:00:00 18,8 10,1 5 3 16 9 W 1018,9 34 0,0
16.07.2019 14:00:00 17,5 9,4 7 4 14 7 W 1019,3 4 0,0
16.07.2019 13:00:00 16,1 9,0 4 2 14 8 SSW 1019,6 0 0,0
16.07.2019 12:00:00 15,5 9,3 8 4 15 8 NNW 1019,9 0 0,0
16.07.2019 11:00:00 15,0 9,3 8 4 16 9 W 1020,0 0 0,0
16.07.2019 10:00:00 14,8 9,9 8 5 14 8 W 1020,0 0 0,0
16.07.2019 09:00:00 14,7 10,9 6 3 10 5 WNW 1019,9 0 0,0
16.07.2019 08:00:00 14,3 12,2 4 2 7 4 W 1019,8 0 0,0
16.07.2019 07:00:00 14,1 13,4 4 2 8 5 W 1019,7 0 0,0
16.07.2019 06:00:00 14,2 12,0 4 2 9 5 WNW 1019,4 0 0,0
16.07.2019 05:00:00 14,2 13,5 7 4 12 6 NNW 1019,4 0 0,0
16.07.2019 04:00:00 14,2 14,2 7 4 11 6 N 1019,6 0 0,0
16.07.2019 03:00:00 14,3 14,3 7 4 15 8 N 1020,0 0 0,0
16.07.2019 02:00:00 14,6 14,6 7 4 13 7 N 1020,1 0 0,0
16.07.2019 01:00:00 14,8 13,9 6 4 16 9 NNW 1020,1 0 0,0
16.07.2019 00:00:00 15,2 11,2 8 5 19 10 NNW 1020,2 0 0,0
15.07.2019 23:00:00 15,5 11,2 11 6 19 10 NNW 1020,1 0 0,0
15.07.2019 22:00:00 15,9 11,2 10 5 18 10 NNW 1020,2 0 0,0
15.07.2019 21:00:00 16,5 10,5 10 5 22 12 N 1019,8 2 0,0
15.07.2019 20:00:00 17,0 10,4 11 6 24 13 N 1019,8 0 0,0
15.07.2019 19:00:00 17,5 9,9 11 6 21 11 N 1019,8 2 0,0

tt = Température de l'air
td = dewpoint
ff = Vitesse du vent
fx = gusts
dd = Direction du vent
ppp = reduced air pressure
sd = Ensoleillement
rr = Quantités de précipitations

stations d'obs. à proximité